sensor_id;sensor_type;location;lat;lon;timestamp;temperature;humidity
70986;DHT22;58645;43.068;25.610;2022-10-30T00:00:54;8.00;99.90
70986;DHT22;58645;43.068;25.610;2022-10-30T00:03:20;7.90;99.90
70986;DHT22;58645;43.068;25.610;2022-10-30T00:05:47;8.00;99.90
70986;DHT22;58645;43.068;25.610;2022-10-30T00:08:16;7.90;99.90
70986;DHT22;58645;43.068;25.610;2022-10-30T00:10:42;7.90;99.90
70986;DHT22;58645;43.068;25.610;2022-10-30T00:13:08;8.00;99.90
70986;DHT22;58645;43.068;25.610;2022-10-30T00:15:34;7.90;99.90
70986;DHT22;58645;43.068;25.610;2022-10-30T00:18:00;7.90;99.90
70986;DHT22;58645;43.068;25.610;2022-10-30T00:20:26;7.90;99.90
70986;DHT22;58645;43.068;25.610;2022-10-30T00:22:51;7.90;99.90
70986;DHT22;58645;43.068;25.610;2022-10-30T00:25:17;7.80;99.90
70986;DHT22;58645;43.068;25.610;2022-10-30T00:27:43;7.80;99.90
70986;DHT22;58645;43.068;25.610;2022-10-30T00:30:09;7.80;99.90
70986;DHT22;58645;43.068;25.610;2022-10-30T00:32:35;7.70;99.90
70986;DHT22;58645;43.068;25.610;2022-10-30T00:35:01;7.70;99.90
70986;DHT22;58645;43.068;25.610;2022-10-30T00:37:27;7.60;99.90
70986;DHT22;58645;43.068;25.610;2022-10-30T00:39:53;7.60;99.90
70986;DHT22;58645;43.068;25.610;2022-10-30T00:42:18;7.60;99.90
70986;DHT22;58645;43.068;25.610;2022-10-30T00:44:46;7.50;99.90
70986;DHT22;58645;43.068;25.610;2022-10-30T00:52:40;7.50;99.90
70986;DHT22;58645;43.068;25.610;2022-10-30T00:55:15;7.50;99.90
70986;DHT22;58645;43.068;25.610;2022-10-30T00:57:42;7.40;99.90
70986;DHT22;58645;43.068;25.610;2022-10-30T01:00:10;7.40;99.90
70986;DHT22;58645;43.068;25.610;2022-10-30T01:02:37;7.40;99.90
70986;DHT22;58645;43.068;25.610;2022-10-30T01:05:04;7.30;99.90
70986;DHT22;58645;43.068;25.610;2022-10-30T01:07:30;7.30;99.90
70986;DHT22;58645;43.068;25.610;2022-10-30T01:09:56;7.30;99.90
70986;DHT22;58645;43.068;25.610;2022-10-30T01:12:22;7.30;99.90
70986;DHT22;58645;43.068;25.610;2022-10-30T01:14:55;7.20;99.90
70986;DHT22;58645;43.068;25.610;2022-10-30T01:23:04;7.20;99.90
70986;DHT22;58645;43.068;25.610;2022-10-30T01:28:27;7.10;99.90
70986;DHT22;58645;43.068;25.610;2022-10-30T01:31:30;7.10;99.90
70986;DHT22;58645;43.068;25.610;2022-10-30T01:37:00;7.10;99.90
70986;DHT22;58645;43.068;25.610;2022-10-30T01:39:32;7.10;99.90
70986;DHT22;58645;43.068;25.610;2022-10-30T01:41:58;7.10;99.90
70986;DHT22;58645;43.068;25.610;2022-10-30T01:44:32;7.00;99.90
70986;DHT22;58645;43.068;25.610;2022-10-30T01:47:10;7.00;99.90
70986;DHT22;58645;43.068;25.610;2022-10-30T01:58:27;6.90;99.90
70986;DHT22;58645;43.068;25.610;2022-10-30T02:00:57;6.90;99.90
70986;DHT22;58645;43.068;25.610;2022-10-30T02:03:24;6.80;99.90
70986;DHT22;58645;43.068;25.610;2022-10-30T02:05:51;6.90;99.90
70986;DHT22;58645;43.068;25.610;2022-10-30T02:08:18;6.80;99.90
70986;DHT22;58645;43.068;25.610;2022-10-30T02:10:44;6.90;99.90
70986;DHT22;58645;43.068;25.610;2022-10-30T02:13:11;6.90;99.90
70986;DHT22;58645;43.068;25.610;2022-10-30T02:15:37;6.90;99.90
70986;DHT22;58645;43.068;25.610;2022-10-30T02:18:03;6.80;99.90
70986;DHT22;58645;43.068;25.610;2022-10-30T02:20:29;6.80;99.90
70986;DHT22;58645;43.068;25.610;2022-10-30T02:22:56;6.90;99.90
70986;DHT22;58645;43.068;25.610;2022-10-30T02:25:21;6.80;99.90
70986;DHT22;58645;43.068;25.610;2022-10-30T02:27:47;6.80;99.90
70986;DHT22;58645;43.068;25.610;2022-10-30T02:30:13;6.80;99.90
70986;DHT22;58645;43.068;25.610;2022-10-30T02:32:39;6.80;99.90
70986;DHT22;58645;43.068;25.610;2022-10-30T02:35:05;6.80;99.90
70986;DHT22;58645;43.068;25.610;2022-10-30T02:37:31;6.70;99.90
70986;DHT22;58645;43.068;25.610;2022-10-30T02:40:00;6.70;99.90
70986;DHT22;58645;43.068;25.610;2022-10-30T02:42:26;6.70;99.90
70986;DHT22;58645;43.068;25.610;2022-10-30T02:44:52;6.70;99.90
70986;DHT22;58645;43.068;25.610;2022-10-30T02:47:18;6.70;99.90
70986;DHT22;58645;43.068;25.610;2022-10-30T02:49:43;6.70;99.90
70986;DHT22;58645;43.068;25.610;2022-10-30T02:52:09;6.70;99.90
70986;DHT22;58645;43.068;25.610;2022-10-30T02:54:35;6.80;99.90
70986;DHT22;58645;43.068;25.610;2022-10-30T02:57:02;6.80;99.90
70986;DHT22;58645;43.068;25.610;2022-10-30T02:59:28;6.90;99.90
70986;DHT22;58645;43.068;25.610;2022-10-30T03:01:54;6.90;99.90
70986;DHT22;58645;43.068;25.610;2022-10-30T03:04:20;6.90;99.90
70986;DHT22;58645;43.068;25.610;2022-10-30T03:06:46;6.90;99.90
70986;DHT22;58645;43.068;25.610;2022-10-30T03:09:12;6.90;99.90
70986;DHT22;58645;43.068;25.610;2022-10-30T03:11:37;6.90;99.90
70986;DHT22;58645;43.068;25.610;2022-10-30T03:14:03;6.90;99.90
70986;DHT22;58645;43.068;25.610;2022-10-30T03:16:29;6.90;99.90
70986;DHT22;58645;43.068;25.610;2022-10-30T03:18:56;6.80;99.90
70986;DHT22;58645;43.068;25.610;2022-10-30T03:21:24;6.80;99.90
70986;DHT22;58645;43.068;25.610;2022-10-30T03:23:51;6.80;99.90
70986;DHT22;58645;43.068;25.610;2022-10-30T03:26:17;6.70;99.90
70986;DHT22;58645;43.068;25.610;2022-10-30T03:28:43;6.60;99.90
70986;DHT22;58645;43.068;25.610;2022-10-30T03:31:10;6.60;99.90
70986;DHT22;58645;43.068;25.610;2022-10-30T03:33:37;6.50;99.90
70986;DHT22;58645;43.068;25.610;2022-10-30T03:36:04;6.50;99.90
70986;DHT22;58645;43.068;25.610;2022-10-30T03:38:30;6.50;99.90
70986;DHT22;58645;43.068;25.610;2022-10-30T03:40:56;6.50;99.90
70986;DHT22;58645;43.068;25.610;2022-10-30T03:43:22;6.50;99.90
70986;DHT22;58645;43.068;25.610;2022-10-30T03:45:50;6.40;99.90
70986;DHT22;58645;43.068;25.610;2022-10-30T03:48:20;6.40;99.90
70986;DHT22;58645;43.068;25.610;2022-10-30T03:50:46;6.40;99.90
70986;DHT22;58645;43.068;25.610;2022-10-30T03:53:12;6.40;99.90
70986;DHT22;58645;43.068;25.610;2022-10-30T03:55:39;6.40;99.90
70986;DHT22;58645;43.068;25.610;2022-10-30T03:58:06;6.40;99.90
70986;DHT22;58645;43.068;25.610;2022-10-30T04:00:32;6.30;99.90
70986;DHT22;58645;43.068;25.610;2022-10-30T04:02:58;6.40;99.90
70986;DHT22;58645;43.068;25.610;2022-10-30T04:05:25;6.30;99.90
70986;DHT22;58645;43.068;25.610;2022-10-30T04:08:00;6.40;99.90
70986;DHT22;58645;43.068;25.610;2022-10-30T04:10:26;6.30;99.90
70986;DHT22;58645;43.068;25.610;2022-10-30T04:13:02;6.40;99.90
70986;DHT22;58645;43.068;25.610;2022-10-30T04:15:28;6.40;99.90
70986;DHT22;58645;43.068;25.610;2022-10-30T04:17:54;6.40;99.90
70986;DHT22;58645;43.068;25.610;2022-10-30T04:20:22;6.40;99.90
70986;DHT22;58645;43.068;25.610;2022-10-30T04:22:48;6.40;99.90
70986;DHT22;58645;43.068;25.610;2022-10-30T04:25:13;6.30;99.90
70986;DHT22;58645;43.068;25.610;2022-10-30T04:27:43;6.40;99.90
70986;DHT22;58645;43.068;25.610;2022-10-30T04:30:11;6.40;99.90
70986;DHT22;58645;43.068;25.610;2022-10-30T04:32:51;6.40;99.90
70986;DHT22;58645;43.068;25.610;2022-10-30T04:35:19;6.30;99.90
70986;DHT22;58645;43.068;25.610;2022-10-30T04:37:56;6.30;99.90
70986;DHT22;58645;43.068;25.610;2022-10-30T04:40:23;6.30;99.90
70986;DHT22;58645;43.068;25.610;2022-10-30T04:42:49;6.40;99.90
70986;DHT22;58645;43.068;25.610;2022-10-30T04:45:15;6.40;99.90
70986;DHT22;58645;43.068;25.610;2022-10-30T04:47:41;6.40;99.90
70986;DHT22;58645;43.068;25.610;2022-10-30T04:50:08;6.40;99.90
70986;DHT22;58645;43.068;25.610;2022-10-30T04:52:34;6.40;99.90
70986;DHT22;58645;43.068;25.610;2022-10-30T04:54:59;6.40;99.90
70986;DHT22;58645;43.068;25.610;2022-10-30T04:57:25;6.40;99.90
70986;DHT22;58645;43.068;25.610;2022-10-30T04:59:51;6.40;99.90
70986;DHT22;58645;43.068;25.610;2022-10-30T05:02:16;6.40;99.90
70986;DHT22;58645;43.068;25.610;2022-10-30T05:04:45;6.40;99.90
70986;DHT22;58645;43.068;25.610;2022-10-30T05:07:11;6.40;99.90
70986;DHT22;58645;43.068;25.610;2022-10-30T05:09:38;6.40;99.90
70986;DHT22;58645;43.068;25.610;2022-10-30T05:12:04;6.50;99.90
70986;DHT22;58645;43.068;25.610;2022-10-30T05:14:30;6.50;99.90
70986;DHT22;58645;43.068;25.610;2022-10-30T05:16:56;6.60;99.90
70986;DHT22;58645;43.068;25.610;2022-10-30T05:19:22;6.70;99.90
70986;DHT22;58645;43.068;25.610;2022-10-30T05:21:48;6.60;99.90
70986;DHT22;58645;43.068;25.610;2022-10-30T05:24:13;6.70;99.90
70986;DHT22;58645;43.068;25.610;2022-10-30T05:26:39;6.70;99.90
70986;DHT22;58645;43.068;25.610;2022-10-30T05:29:05;6.80;99.90
70986;DHT22;58645;43.068;25.610;2022-10-30T05:31:30;6.80;99.90
70986;DHT22;58645;43.068;25.610;2022-10-30T05:33:56;6.90;99.90
70986;DHT22;58645;43.068;25.610;2022-10-30T05:36:22;7.10;99.90
70986;DHT22;58645;43.068;25.610;2022-10-30T05:38:48;7.40;99.90
70986;DHT22;58645;43.068;25.610;2022-10-30T05:41:14;8.40;99.90
70986;DHT22;58645;43.068;25.610;2022-10-30T05:43:39;9.80;99.90
70986;DHT22;58645;43.068;25.610;2022-10-30T05:46:05;11.00;93.60
70986;DHT22;58645;43.068;25.610;2022-10-30T05:48:31;12.00;86.40
70986;DHT22;58645;43.068;25.610;2022-10-30T05:50:56;12.90;80.20
70986;DHT22;58645;43.068;25.610;2022-10-30T05:53:23;13.80;75.30
70986;DHT22;58645;43.068;25.610;2022-10-30T05:55:49;14.50;70.40
70986;DHT22;58645;43.068;25.610;2022-10-30T05:58:15;15.00;66.60
70986;DHT22;58645;43.068;25.610;2022-10-30T06:00:41;15.10;65.20
70986;DHT22;58645;43.068;25.610;2022-10-30T06:03:12;15.60;63.70
70986;DHT22;58645;43.068;25.610;2022-10-30T06:05:38;16.10;61.50
70986;DHT22;58645;43.068;25.610;2022-10-30T06:08:05;16.50;60.60
70986;DHT22;58645;43.068;25.610;2022-10-30T06:10:31;17.30;58.50
70986;DHT22;58645;43.068;25.610;2022-10-30T06:12:59;18.10;56.80
70986;DHT22;58645;43.068;25.610;2022-10-30T06:15:26;18.70;54.50
70986;DHT22;58645;43.068;25.610;2022-10-30T06:17:52;19.10;52.80
70986;DHT22;58645;43.068;25.610;2022-10-30T06:20:19;19.50;51.70
70986;DHT22;58645;43.068;25.610;2022-10-30T06:23:06;20.00;50.30
70986;DHT22;58645;43.068;25.610;2022-10-30T06:25:33;20.80;49.20
70986;DHT22;58645;43.068;25.610;2022-10-30T06:27:59;21.40;46.90
70986;DHT22;58645;43.068;25.610;2022-10-30T06:30:26;21.70;46.30
70986;DHT22;58645;43.068;25.610;2022-10-30T06:32:59;22.00;45.80
70986;DHT22;58645;43.068;25.610;2022-10-30T06:35:26;22.00;45.20
70986;DHT22;58645;43.068;25.610;2022-10-30T06:37:53;22.10;44.80
70986;DHT22;58645;43.068;25.610;2022-10-30T06:40:19;22.10;44.60
70986;DHT22;58645;43.068;25.610;2022-10-30T06:42:47;22.40;44.00
70986;DHT22;58645;43.068;25.610;2022-10-30T06:45:15;22.60;43.10
70986;DHT22;58645;43.068;25.610;2022-10-30T06:47:42;22.80;42.80
70986;DHT22;58645;43.068;25.610;2022-10-30T06:50:14;22.80;42.20
70986;DHT22;58645;43.068;25.610;2022-10-30T06:52:40;22.50;42.40
70986;DHT22;58645;43.068;25.610;2022-10-30T06:55:06;22.90;42.20
70986;DHT22;58645;43.068;25.610;2022-10-30T06:57:32;23.20;41.30
70986;DHT22;58645;43.068;25.610;2022-10-30T06:59:58;23.40;41.00
70986;DHT22;58645;43.068;25.610;2022-10-30T07:02:24;23.60;40.40
70986;DHT22;58645;43.068;25.610;2022-10-30T07:04:49;23.80;40.00
70986;DHT22;58645;43.068;25.610;2022-10-30T07:07:16;23.80;40.30
70986;DHT22;58645;43.068;25.610;2022-10-30T07:09:42;24.20;39.10
70986;DHT22;58645;43.068;25.610;2022-10-30T07:12:08;24.80;38.20
70986;DHT22;58645;43.068;25.610;2022-10-30T07:14:34;25.30;36.60
70986;DHT22;58645;43.068;25.610;2022-10-30T07:17:00;25.50;36.10
70986;DHT22;58645;43.068;25.610;2022-10-30T07:19:26;25.70;35.80
70986;DHT22;58645;43.068;25.610;2022-10-30T07:21:52;26.40;34.70
70986;DHT22;58645;43.068;25.610;2022-10-30T07:24:18;27.00;33.90
70986;DHT22;58645;43.068;25.610;2022-10-30T07:26:44;27.20;33.10
70986;DHT22;58645;43.068;25.610;2022-10-30T07:29:09;27.30;33.00
70986;DHT22;58645;43.068;25.610;2022-10-30T07:31:36;27.40;32.30
70986;DHT22;58645;43.068;25.610;2022-10-30T07:34:02;27.80;31.80
70986;DHT22;58645;43.068;25.610;2022-10-30T07:36:28;28.00;31.90
70986;DHT22;58645;43.068;25.610;2022-10-30T07:38:53;28.60;30.60
70986;DHT22;58645;43.068;25.610;2022-10-30T07:41:20;28.70;30.30
70986;DHT22;58645;43.068;25.610;2022-10-30T07:43:46;28.80;30.00
70986;DHT22;58645;43.068;25.610;2022-10-30T07:46:13;28.80;29.90
70986;DHT22;58645;43.068;25.610;2022-10-30T07:48:39;29.10;30.40
70986;DHT22;58645;43.068;25.610;2022-10-30T07:51:05;29.50;29.60
70986;DHT22;58645;43.068;25.610;2022-10-30T07:53:31;29.70;29.20
70986;DHT22;58645;43.068;25.610;2022-10-30T07:55:57;29.80;28.80
70986;DHT22;58645;43.068;25.610;2022-10-30T07:58:23;29.60;28.70
70986;DHT22;58645;43.068;25.610;2022-10-30T08:00:49;29.70;29.10
70986;DHT22;58645;43.068;25.610;2022-10-30T08:03:15;29.90;28.50
70986;DHT22;58645;43.068;25.610;2022-10-30T08:05:41;30.20;29.00
70986;DHT22;58645;43.068;25.610;2022-10-30T08:08:07;30.80;27.20
70986;DHT22;58645;43.068;25.610;2022-10-30T08:10:33;31.10;27.40
70986;DHT22;58645;43.068;25.610;2022-10-30T08:13:00;31.10;27.10
70986;DHT22;58645;43.068;25.610;2022-10-30T08:15:26;31.20;27.20
70986;DHT22;58645;43.068;25.610;2022-10-30T08:17:52;31.30;27.00
70986;DHT22;58645;43.068;25.610;2022-10-30T08:20:20;31.40;26.50
70986;DHT22;58645;43.068;25.610;2022-10-30T08:25:18;31.80;26.00
70986;DHT22;58645;43.068;25.610;2022-10-30T08:30:24;32.00;26.40
70986;DHT22;58645;43.068;25.610;2022-10-30T08:32:51;31.80;25.60
70986;DHT22;58645;43.068;25.610;2022-10-30T08:35:16;32.00;26.00
70986;DHT22;58645;43.068;25.610;2022-10-30T08:37:42;32.30;25.90
70986;DHT22;58645;43.068;25.610;2022-10-30T08:40:10;32.60;25.20
70986;DHT22;58645;43.068;25.610;2022-10-30T08:42:36;32.70;24.60
70986;DHT22;58645;43.068;25.610;2022-10-30T08:45:03;32.50;24.60
70986;DHT22;58645;43.068;25.610;2022-10-30T08:47:29;32.80;24.40
70986;DHT22;58645;43.068;25.610;2022-10-30T08:49:55;32.90;24.90
70986;DHT22;58645;43.068;25.610;2022-10-30T08:52:20;33.00;24.40
70986;DHT22;58645;43.068;25.610;2022-10-30T08:54:46;33.00;24.50
70986;DHT22;58645;43.068;25.610;2022-10-30T08:57:12;33.20;24.00
70986;DHT22;58645;43.068;25.610;2022-10-30T08:59:37;33.40;24.20
70986;DHT22;58645;43.068;25.610;2022-10-30T09:02:03;33.20;24.40
70986;DHT22;58645;43.068;25.610;2022-10-30T09:04:29;33.20;23.90
70986;DHT22;58645;43.068;25.610;2022-10-30T09:06:55;33.30;23.70
70986;DHT22;58645;43.068;25.610;2022-10-30T09:09:20;33.50;23.70
70986;DHT22;58645;43.068;25.610;2022-10-30T09:11:47;33.90;22.40
70986;DHT22;58645;43.068;25.610;2022-10-30T09:14:13;34.00;22.70
70986;DHT22;58645;43.068;25.610;2022-10-30T09:16:39;34.00;21.80
70986;DHT22;58645;43.068;25.610;2022-10-30T09:19:04;33.60;21.80
70986;DHT22;58645;43.068;25.610;2022-10-30T09:21:30;34.00;22.20
70986;DHT22;58645;43.068;25.610;2022-10-30T09:23:56;34.40;21.40
70986;DHT22;58645;43.068;25.610;2022-10-30T09:26:21;34.80;20.50
70986;DHT22;58645;43.068;25.610;2022-10-30T09:28:48;35.00;21.30
70986;DHT22;58645;43.068;25.610;2022-10-30T09:31:13;35.00;20.40
70986;DHT22;58645;43.068;25.610;2022-10-30T09:33:39;34.80;20.80
70986;DHT22;58645;43.068;25.610;2022-10-30T09:36:05;34.80;20.30
70986;DHT22;58645;43.068;25.610;2022-10-30T09:38:31;35.10;20.20
70986;DHT22;58645;43.068;25.610;2022-10-30T09:49:09;35.40;20.20
70986;DHT22;58645;43.068;25.610;2022-10-30T09:57:50;35.10;19.50
70986;DHT22;58645;43.068;25.610;2022-10-30T10:00:20;35.50;19.20
70986;DHT22;58645;43.068;25.610;2022-10-30T10:03:15;35.50;18.90
70986;DHT22;58645;43.068;25.610;2022-10-30T10:05:57;35.60;18.70
70986;DHT22;58645;43.068;25.610;2022-10-30T10:08:35;35.50;18.70
70986;DHT22;58645;43.068;25.610;2022-10-30T10:11:09;35.80;18.40
70986;DHT22;58645;43.068;25.610;2022-10-30T10:13:42;35.80;17.50
70986;DHT22;58645;43.068;25.610;2022-10-30T10:16:22;35.60;16.80
70986;DHT22;58645;43.068;25.610;2022-10-30T10:21:27;35.60;18.30
70986;DHT22;58645;43.068;25.610;2022-10-30T10:23:58;35.80;17.80
70986;DHT22;58645;43.068;25.610;2022-10-30T10:26:35;35.90;17.70
70986;DHT22;58645;43.068;25.610;2022-10-30T10:34:38;35.10;18.80
70986;DHT22;58645;43.068;25.610;2022-10-30T10:51:07;35.00;18.70
70986;DHT22;58645;43.068;25.610;2022-10-30T10:53:48;35.60;17.10
70986;DHT22;58645;43.068;25.610;2022-10-30T10:56:20;35.80;16.60
70986;DHT22;58645;43.068;25.610;2022-10-30T10:58:52;35.70;17.40
70986;DHT22;58645;43.068;25.610;2022-10-30T11:01:41;35.70;17.50
70986;DHT22;58645;43.068;25.610;2022-10-30T11:04:34;36.00;16.40
70986;DHT22;58645;43.068;25.610;2022-10-30T11:07:31;36.30;16.30
70986;DHT22;58645;43.068;25.610;2022-10-30T11:09:57;36.80;15.80
70986;DHT22;58645;43.068;25.610;2022-10-30T11:12:28;36.40;15.70
70986;DHT22;58645;43.068;25.610;2022-10-30T11:14:58;36.70;15.50
70986;DHT22;58645;43.068;25.610;2022-10-30T11:17:33;36.80;15.20
70986;DHT22;58645;43.068;25.610;2022-10-30T11:20:18;37.00;15.30
70986;DHT22;58645;43.068;25.610;2022-10-30T11:22:49;36.80;14.50
70986;DHT22;58645;43.068;25.610;2022-10-30T11:25:21;36.70;14.00
70986;DHT22;58645;43.068;25.610;2022-10-30T11:27:55;36.60;15.00
70986;DHT22;58645;43.068;25.610;2022-10-30T11:30:24;37.10;14.40
70986;DHT22;58645;43.068;25.610;2022-10-30T11:32:51;37.40;13.50
70986;DHT22;58645;43.068;25.610;2022-10-30T11:35:18;36.20;14.70
70986;DHT22;58645;43.068;25.610;2022-10-30T11:37:47;35.70;15.80
70986;DHT22;58645;43.068;25.610;2022-10-30T11:42:46;35.90;15.00
70986;DHT22;58645;43.068;25.610;2022-10-30T11:45:18;35.50;16.00
70986;DHT22;58645;43.068;25.610;2022-10-30T11:47:48;35.00;17.20
70986;DHT22;58645;43.068;25.610;2022-10-30T11:50:21;35.00;16.80
70986;DHT22;58645;43.068;25.610;2022-10-30T11:52:56;35.20;16.80
70986;DHT22;58645;43.068;25.610;2022-10-30T11:55:34;35.80;15.00
70986;DHT22;58645;43.068;25.610;2022-10-30T11:58:00;35.50;16.20
70986;DHT22;58645;43.068;25.610;2022-10-30T12:00:28;34.50;17.30
70986;DHT22;58645;43.068;25.610;2022-10-30T12:02:56;33.00;19.60
70986;DHT22;58645;43.068;25.610;2022-10-30T12:10:55;30.90;22.30
70986;DHT22;58645;43.068;25.610;2022-10-30T12:13:22;30.20;23.50
70986;DHT22;58645;43.068;25.610;2022-10-30T12:16:02;29.70;24.00
70986;DHT22;58645;43.068;25.610;2022-10-30T12:18:29;29.20;25.30
70986;DHT22;58645;43.068;25.610;2022-10-30T12:20:56;28.60;25.80
70986;DHT22;58645;43.068;25.610;2022-10-30T12:23:24;28.30;26.60
70986;DHT22;58645;43.068;25.610;2022-10-30T12:26:00;27.80;27.30
70986;DHT22;58645;43.068;25.610;2022-10-30T12:28:28;27.60;27.50
70986;DHT22;58645;43.068;25.610;2022-10-30T12:31:10;27.30;27.90
70986;DHT22;58645;43.068;25.610;2022-10-30T12:36:28;27.00;28.90
70986;DHT22;58645;43.068;25.610;2022-10-30T12:38:59;26.70;29.10
70986;DHT22;58645;43.068;25.610;2022-10-30T12:41:44;26.70;29.00
70986;DHT22;58645;43.068;25.610;2022-10-30T12:44:17;26.60;29.30
70986;DHT22;58645;43.068;25.610;2022-10-30T12:49:19;26.40;30.10
70986;DHT22;58645;43.068;25.610;2022-10-30T12:54:21;26.20;30.70
70986;DHT22;58645;43.068;25.610;2022-10-30T12:57:02;26.20;30.80
70986;DHT22;58645;43.068;25.610;2022-10-30T13:05:00;26.00;31.10
70986;DHT22;58645;43.068;25.610;2022-10-30T13:07:46;25.90;30.40
70986;DHT22;58645;43.068;25.610;2022-10-30T13:10:28;25.90;30.90
70986;DHT22;58645;43.068;25.610;2022-10-30T13:13:00;25.90;31.20
70986;DHT22;58645;43.068;25.610;2022-10-30T13:15:53;25.80;31.20
70986;DHT22;58645;43.068;25.610;2022-10-30T13:18:25;25.70;31.40
70986;DHT22;58645;43.068;25.610;2022-10-30T13:24:04;25.50;31.60
70986;DHT22;58645;43.068;25.610;2022-10-30T13:26:44;25.40;32.10
70986;DHT22;58645;43.068;25.610;2022-10-30T13:37:42;25.20;32.50
70986;DHT22;58645;43.068;25.610;2022-10-30T13:40:36;25.20;32.60
70986;DHT22;58645;43.068;25.610;2022-10-30T13:48:41;25.00;32.80
70986;DHT22;58645;43.068;25.610;2022-10-30T13:56:46;24.80;32.80
70986;DHT22;58645;43.068;25.610;2022-10-30T14:02:10;24.70;33.20
70986;DHT22;58645;43.068;25.610;2022-10-30T14:04:46;24.70;33.10
70986;DHT22;58645;43.068;25.610;2022-10-30T14:07:20;24.60;33.00
70986;DHT22;58645;43.068;25.610;2022-10-30T14:20:41;24.30;33.80
70986;DHT22;58645;43.068;25.610;2022-10-30T14:28:29;24.10;34.20
70986;DHT22;58645;43.068;25.610;2022-10-30T14:31:15;23.90;34.30
70986;DHT22;58645;43.068;25.610;2022-10-30T14:33:52;23.90;34.30
70986;DHT22;58645;43.068;25.610;2022-10-30T14:36:46;23.80;34.60
70986;DHT22;58645;43.068;25.610;2022-10-30T14:41:57;23.60;35.10
70986;DHT22;58645;43.068;25.610;2022-10-30T14:52:19;23.10;36.20
70986;DHT22;58645;43.068;25.610;2022-10-30T14:55:04;23.00;36.50
70986;DHT22;58645;43.068;25.610;2022-10-30T14:57:53;22.90;37.10
70986;DHT22;58645;43.068;25.610;2022-10-30T15:05:58;22.50;38.50
70986;DHT22;58645;43.068;25.610;2022-10-30T15:08:38;22.30;38.60
70986;DHT22;58645;43.068;25.610;2022-10-30T15:13:39;22.00;39.40
70986;DHT22;58645;43.068;25.610;2022-10-30T15:16:15;21.90;39.60
70986;DHT22;58645;43.068;25.610;2022-10-30T15:18:45;21.80;39.90
70986;DHT22;58645;43.068;25.610;2022-10-30T15:21:17;21.70;40.20
70986;DHT22;58645;43.068;25.610;2022-10-30T15:23:47;21.60;40.40
70986;DHT22;58645;43.068;25.610;2022-10-30T15:26:20;21.50;40.60
70986;DHT22;58645;43.068;25.610;2022-10-30T15:28:49;21.40;40.80
70986;DHT22;58645;43.068;25.610;2022-10-30T15:31:27;21.30;41.40
70986;DHT22;58645;43.068;25.610;2022-10-30T15:33:54;21.20;41.60
70986;DHT22;58645;43.068;25.610;2022-10-30T15:39:20;21.00;42.30
70986;DHT22;58645;43.068;25.610;2022-10-30T15:41:56;20.90;42.60
70986;DHT22;58645;43.068;25.610;2022-10-30T15:44:26;20.80;43.10
70986;DHT22;58645;43.068;25.610;2022-10-30T15:46:54;20.70;43.70
70986;DHT22;58645;43.068;25.610;2022-10-30T15:49:41;20.60;44.80
70986;DHT22;58645;43.068;25.610;2022-10-30T15:52:34;20.40;45.00
70986;DHT22;58645;43.068;25.610;2022-10-30T15:55:04;20.30;45.10
70986;DHT22;58645;43.068;25.610;2022-10-30T15:57:33;20.20;45.10
70986;DHT22;58645;43.068;25.610;2022-10-30T16:00:04;20.10;45.50
70986;DHT22;58645;43.068;25.610;2022-10-30T16:02:32;20.00;46.00
70986;DHT22;58645;43.068;25.610;2022-10-30T16:04:58;19.90;46.40
70986;DHT22;58645;43.068;25.610;2022-10-30T16:07:26;19.80;46.50
70986;DHT22;58645;43.068;25.610;2022-10-30T16:09:59;19.70;46.90
70986;DHT22;58645;43.068;25.610;2022-10-30T16:12:32;19.70;47.30
70986;DHT22;58645;43.068;25.610;2022-10-30T16:15:04;19.60;47.50
70986;DHT22;58645;43.068;25.610;2022-10-30T16:17:31;19.60;47.90
70986;DHT22;58645;43.068;25.610;2022-10-30T16:20:00;19.50;48.10
70986;DHT22;58645;43.068;25.610;2022-10-30T16:22:33;19.40;48.30
70986;DHT22;58645;43.068;25.610;2022-10-30T16:25:00;19.40;48.60
70986;DHT22;58645;43.068;25.610;2022-10-30T16:27:26;19.40;48.80
70986;DHT22;58645;43.068;25.610;2022-10-30T16:29:58;19.30;49.40
70986;DHT22;58645;43.068;25.610;2022-10-30T16:32:26;19.20;49.60
70986;DHT22;58645;43.068;25.610;2022-10-30T16:34:58;19.10;49.70
70986;DHT22;58645;43.068;25.610;2022-10-30T16:37:35;19.00;49.80
70986;DHT22;58645;43.068;25.610;2022-10-30T16:42:32;18.90;50.00
70986;DHT22;58645;43.068;25.610;2022-10-30T16:48:06;18.80;50.60
70986;DHT22;58645;43.068;25.610;2022-10-30T16:50:34;18.70;50.90
70986;DHT22;58645;43.068;25.610;2022-10-30T16:53:14;18.60;51.30
70986;DHT22;58645;43.068;25.610;2022-10-30T16:55:41;18.50;52.10
70986;DHT22;58645;43.068;25.610;2022-10-30T16:58:10;18.40;51.80
70986;DHT22;58645;43.068;25.610;2022-10-30T17:00:39;18.40;51.60
70986;DHT22;58645;43.068;25.610;2022-10-30T17:03:08;18.30;51.90
70986;DHT22;58645;43.068;25.610;2022-10-30T17:05:35;18.30;52.10
70986;DHT22;58645;43.068;25.610;2022-10-30T17:08:40;18.20;51.80
70986;DHT22;58645;43.068;25.610;2022-10-30T17:11:15;18.20;52.20
70986;DHT22;58645;43.068;25.610;2022-10-30T17:16:24;18.10;53.10
70986;DHT22;58645;43.068;25.610;2022-10-30T17:18:51;18.00;53.40
70986;DHT22;58645;43.068;25.610;2022-10-30T17:21:20;17.90;52.90
70986;DHT22;58645;43.068;25.610;2022-10-30T17:23:58;17.80;53.30
70986;DHT22;58645;43.068;25.610;2022-10-30T17:26:28;17.70;53.50
70986;DHT22;58645;43.068;25.610;2022-10-30T17:28:56;17.70;53.60
70986;DHT22;58645;43.068;25.610;2022-10-30T17:34:16;17.50;53.90
70986;DHT22;58645;43.068;25.610;2022-10-30T17:36:43;17.40;53.90
70986;DHT22;58645;43.068;25.610;2022-10-30T17:39:09;17.40;54.10
70986;DHT22;58645;43.068;25.610;2022-10-30T17:41:35;17.40;54.40
70986;DHT22;58645;43.068;25.610;2022-10-30T17:44:01;17.30;54.60
70986;DHT22;58645;43.068;25.610;2022-10-30T17:46:27;17.30;54.80
70986;DHT22;58645;43.068;25.610;2022-10-30T17:48:53;17.20;55.10
70986;DHT22;58645;43.068;25.610;2022-10-30T17:51:19;17.20;55.40
70986;DHT22;58645;43.068;25.610;2022-10-30T17:53:48;17.20;55.30
70986;DHT22;58645;43.068;25.610;2022-10-30T17:56:31;17.10;55.50
70986;DHT22;58645;43.068;25.610;2022-10-30T17:58:57;17.10;55.80
70986;DHT22;58645;43.068;25.610;2022-10-30T18:01:25;17.00;56.10
70986;DHT22;58645;43.068;25.610;2022-10-30T18:03:52;17.00;56.20
70986;DHT22;58645;43.068;25.610;2022-10-30T18:06:24;16.90;56.20
70986;DHT22;58645;43.068;25.610;2022-10-30T18:08:51;16.80;55.80
70986;DHT22;58645;43.068;25.610;2022-10-30T18:11:20;16.80;56.10
70986;DHT22;58645;43.068;25.610;2022-10-30T18:13:47;16.70;56.30
70986;DHT22;58645;43.068;25.610;2022-10-30T18:16:15;16.60;56.90